Time;durP1;ratioP1;P1;durP2;ratioP2;P2;SDS_P1;SDS_P2;PMS_P1;PMS_P2;Temp;Humidity;BMP_temperature;BMP_pressure;BME280_temperature;BME280_humidity;BME280_pressure;Samples;Min_cycle;Max_cycle;Signal;HPM_P1;HPM_P2
2021/03/18 00:00:28;;;;;;;16.88;6.03;;;1.00;99.90;;;;;;5087563;28;20044;-70
2021/03/18 00:02:54;;;;;;;13.10;5.45;;;1.00;99.90;;;;;;5105671;28;20226;-70
2021/03/18 00:05:20;;;;;;;12.40;4.65;;;1.00;99.90;;;;;;5105453;28;20051;-70
2021/03/18 00:07:46;;;;;;;10.15;5.10;;;1.00;99.90;;;;;;5105250;28;20040;-70
2021/03/18 00:10:13;;;;;;;8.85;4.65;;;1.00;99.90;;;;;;5087758;28;20506;-70
2021/03/18 00:12:39;;;;;;;15.05;5.10;;;1.10;99.90;;;;;;5105624;28;20044;-70
2021/03/18 00:15:12;;;;;;;8.95;4.68;;;1.00;99.90;;;;;;5105605;28;20514;-70
2021/03/18 00:17:38;;;;;;;8.98;4.10;;;0.90;99.90;;;;;;5105923;28;20055;-70
2021/03/18 00:20:07;;;;;;;11.00;4.55;;;0.70;99.90;;;;;;5105009;28;20040;-70
2021/03/18 00:22:36;;;;;;;11.05;4.63;;;0.70;99.90;;;;;;5106167;28;20074;-70
2021/03/18 00:25:02;;;;;;;9.15;4.13;;;0.70;99.90;;;;;;5101729;28;20400;-70
2021/03/18 00:27:27;;;;;;;12.68;4.57;;;0.60;99.90;;;;;;5095739;28;20056;-70
2021/03/18 00:29:53;;;;;;;11.23;5.07;;;0.50;99.90;;;;;;5105169;28;20131;-70
2021/03/18 00:32:19;;;;;;;13.68;5.30;;;0.60;99.90;;;;;;5105379;28;20056;-70
2021/03/18 00:34:45;;;;;;;13.35;5.38;;;0.70;99.90;;;;;;5105111;28;20051;-70
2021/03/18 00:37:10;;;;;;;10.35;4.50;;;0.80;99.90;;;;;;5104175;28;20048;-70
2021/03/18 00:39:36;;;;;;;8.90;4.35;;;0.80;99.90;;;;;;5105804;28;20036;-70
2021/03/18 00:42:03;;;;;;;12.35;4.70;;;0.80;99.90;;;;;;5104961;28;20048;-70
2021/03/18 00:44:28;;;;;;;9.23;4.57;;;0.80;99.90;;;;;;5086784;28;20078;-70
2021/03/18 00:46:54;;;;;;;10.18;5.00;;;0.80;99.90;;;;;;5105785;28;20040;-70
2021/03/18 00:49:21;;;;;;;13.98;6.13;;;0.70;99.90;;;;;;5106048;28;20051;-70
2021/03/18 00:51:47;;;;;;;13.45;5.05;;;0.70;99.90;;;;;;5105153;28;20036;-70
2021/03/18 00:54:13;;;;;;;14.00;4.68;;;0.70;99.90;;;;;;5105044;28;20064;-70
2021/03/18 00:56:38;;;;;;;11.65;5.30;;;0.70;99.90;;;;;;5105845;28;20040;-70
2021/03/18 00:59:04;;;;;;;11.55;4.90;;;0.70;99.90;;;;;;5105871;28;20165;-70
2021/03/18 01:01:30;;;;;;;14.77;6.65;;;0.70;99.90;;;;;;5105769;28;20056;-70
2021/03/18 01:03:56;;;;;;;14.50;5.13;;;0.80;99.90;;;;;;5105458;28;20052;-70
2021/03/18 01:06:25;;;;;;;12.85;5.22;;;0.80;99.90;;;;;;5101602;28;20043;-70
2021/03/18 01:08:52;;;;;;;10.13;4.80;;;0.70;99.90;;;;;;5096747;28;20044;-70
2021/03/18 01:11:22;;;;;;;10.43;5.32;;;0.70;99.90;;;;;;5105426;28;20129;-70
2021/03/18 01:13:51;;;;;;;11.37;4.90;;;0.70;99.90;;;;;;5104995;28;20047;-70
2021/03/18 01:16:16;;;;;;;15.30;5.38;;;0.80;99.90;;;;;;5104570;28;20062;-70
2021/03/18 01:18:51;;;;;;;12.20;6.20;;;0.80;99.90;;;;;;5104815;28;20044;-70
2021/03/18 01:21:19;;;;;;;12.63;4.93;;;0.80;99.90;;;;;;5104984;28;20052;-70
2021/03/18 01:23:46;;;;;;;8.27;5.22;;;0.80;99.90;;;;;;5104922;28;20056;-70
2021/03/18 01:26:12;;;;;;;13.80;5.78;;;0.90;99.90;;;;;;5104394;28;20130;-70
2021/03/18 01:28:39;;;;;;;9.57;5.60;;;0.80;99.90;;;;;;5105313;28;20040;-70
2021/03/18 01:31:06;;;;;;;15.80;5.30;;;0.90;99.90;;;;;;5105063;28;20040;-70
2021/03/18 01:33:33;;;;;;;10.70;5.68;;;0.90;99.90;;;;;;5105139;28;20121;-70
2021/03/18 01:36:01;;;;;;;15.30;6.07;;;0.80;99.90;;;;;;5104417;28;20411;-70
2021/03/18 01:38:28;;;;;;;12.13;5.43;;;0.90;99.90;;;;;;5104803;28;20131;-70
2021/03/18 01:40:55;;;;;;;12.93;5.55;;;0.90;99.90;;;;;;5105259;28;20043;-70
2021/03/18 01:43:22;;;;;;;15.07;5.10;;;0.90;99.90;;;;;;5108303;28;20491;-70
2021/03/18 01:45:48;;;;;;;13.65;5.90;;;0.90;99.90;;;;;;5107997;28;20040;-71
2021/03/18 01:48:14;;;;;;;15.75;5.32;;;0.90;99.90;;;;;;5108597;28;20088;-71
2021/03/18 01:50:41;;;;;;;10.77;5.60;;;0.90;99.90;;;;;;5108869;28;20044;-71
2021/03/18 01:53:08;;;;;;;17.02;6.22;;;0.90;99.90;;;;;;5108460;28;20048;-70
2021/03/18 01:55:38;;;;;;;10.60;5.32;;;0.80;99.90;;;;;;5108138;28;20135;-70
2021/03/18 01:58:05;;;;;;;12.95;5.30;;;0.90;99.90;;;;;;5108422;28;20111;-70
2021/03/18 02:00:32;;;;;;;10.68;5.93;;;0.80;99.90;;;;;;5108018;28;20066;-70
2021/03/18 02:02:59;;;;;;;9.68;5.20;;;0.80;99.90;;;;;;5108153;28;20040;-70
2021/03/18 02:05:25;;;;;;;15.85;6.20;;;0.70;99.90;;;;;;5094572;28;20070;-70
2021/03/18 02:07:53;;;;;;;10.32;5.57;;;0.70;99.90;;;;;;5107930;28;20039;-70
2021/03/18 02:10:33;;;;;;;11.32;5.30;;;0.70;99.90;;;;;;5103400;28;20185;-70
2021/03/18 02:13:00;;;;;;;14.43;6.50;;;0.60;99.90;;;;;;5107799;28;20079;-71
2021/03/18 02:15:31;;;;;;;15.32;6.07;;;0.70;99.90;;;;;;5106937;28;20078;-70
2021/03/18 02:18:20;;;;;;;;;;;0.70;99.90;;;;;;5108578;28;20056;-71
2021/03/18 02:21:23;;;;;;;15.93;6.60;;;0.70;99.90;;;;;;5088505;28;19927;-70
2021/03/18 02:24:10;;;;;;;12.00;6.25;;;0.70;99.90;;;;;;5108271;28;20511;-70
2021/03/18 02:27:04;;;;;;;14.30;6.05;;;0.70;99.90;;;;;;5107915;28;20060;-70
2021/03/18 02:29:51;;;;;;;12.18;5.95;;;0.80;99.90;;;;;;5108389;28;20040;-70
2021/03/18 02:32:56;;;;;;;10.20;5.57;;;0.80;99.90;;;;;;5107452;28;20047;-70
2021/03/18 02:35:44;;;;;;;13.38;5.57;;;0.80;99.90;;;;;;5044524;28;20072;-70
2021/03/18 02:38:23;;;;;;;10.95;5.00;;;0.80;99.90;;;;;;5028592;28;20053;-70
2021/03/18 02:40:57;;;;;;;15.10;6.03;;;0.70;99.90;;;;;;5044860;28;20512;-70
2021/03/18 02:43:25;;;;;;;12.75;6.22;;;0.70;99.90;;;;;;5044699;28;20107;-70
2021/03/18 02:45:57;;;;;;;12.30;6.47;;;0.60;99.90;;;;;;5044308;28;20092;-70
2021/03/18 02:48:45;;;;;;;14.50;6.03;;;0.60;99.90;;;;;;5045293;28;20076;-70
2021/03/18 02:51:15;;;;;;;13.73;5.95;;;0.60;99.90;;;;;;5045024;28;20064;-71
2021/03/18 02:53:43;;;;;;;12.85;6.30;;;0.50;99.90;;;;;;5044054;28;20073;-70
2021/03/18 02:56:11;;;;;;;13.55;6.32;;;0.50;99.90;;;;;;5044283;28;20068;-70
2021/03/18 02:58:39;;;;;;;16.13;6.43;;;0.50;99.90;;;;;;5044916;28;20041;-70
2021/03/18 03:01:07;;;;;;;16.85;7.28;;;0.50;99.90;;;;;;5045045;28;20060;-70
2021/03/18 03:03:34;;;;;;;15.32;6.80;;;0.50;99.90;;;;;;5031627;28;20042;-70
2021/03/18 03:06:03;;;;;;;13.10;6.03;;;0.50;99.90;;;;;;5063486;28;20053;-71
2021/03/18 03:08:30;;;;;;;14.00;6.65;;;0.50;99.90;;;;;;5093356;28;20043;-70
2021/03/18 03:10:58;;;;;;;12.30;6.05;;;0.50;99.90;;;;;;5107046;28;20499;-70
2021/03/18 03:13:33;;;;;;;13.52;6.45;;;0.50;99.90;;;;;;5106476;28;20036;-70
2021/03/18 03:16:03;;;;;;;12.50;6.57;;;0.50;99.90;;;;;;5105867;28;20855;-70
2021/03/18 03:18:29;;;;;;;13.20;5.90;;;0.50;99.90;;;;;;5106648;28;20067;-70
2021/03/18 03:20:57;;;;;;;16.65;5.97;;;0.40;99.90;;;;;;5106821;28;20074;-71
2021/03/18 03:23:26;;;;;;;14.77;6.65;;;0.40;99.90;;;;;;5107362;28;20048;-70
2021/03/18 03:25:53;;;;;;;14.23;5.90;;;0.40;99.90;;;;;;5106793;28;20048;-70
2021/03/18 03:28:21;;;;;;;11.02;6.38;;;0.40;99.90;;;;;;5106281;28;20052;-70
2021/03/18 03:30:47;;;;;;;12.02;6.25;;;0.40;99.90;;;;;;5094012;28;20051;-70
2021/03/18 03:33:13;;;;;;;15.77;6.82;;;0.40;99.90;;;;;;5106414;28;20044;-70
2021/03/18 03:35:39;;;;;;;10.73;6.03;;;0.40;99.90;;;;;;5094648;28;20056;-70
2021/03/18 03:38:06;;;;;;;13.30;6.57;;;0.50;99.90;;;;;;5105003;28;20044;-70
2021/03/18 03:40:33;;;;;;;13.30;5.88;;;0.50;99.90;;;;;;5106088;28;20059;-70
2021/03/18 03:43:00;;;;;;;15.20;6.60;;;0.50;99.90;;;;;;5106719;28;20189;-70
2021/03/18 03:45:26;;;;;;;12.65;5.53;;;0.50;99.90;;;;;;5106483;28;20036;-70
2021/03/18 03:47:52;;;;;;;12.35;5.90;;;0.50;99.90;;;;;;5105892;28;20044;-70
2021/03/18 03:50:21;;;;;;;14.43;6.22;;;0.50;99.90;;;;;;5106015;28;20393;-70
2021/03/18 03:52:56;;;;;;;17.15;6.70;;;0.50;99.90;;;;;;5106084;28;20044;-70
2021/03/18 03:55:59;;;;;;;15.70;6.75;;;0.50;99.90;;;;;;5092956;28;20054;-70
2021/03/18 03:58:49;;;;;;;12.63;6.30;;;0.50;99.90;;;;;;5121919;28;20036;-71
2021/03/18 04:01:29;;;;;;;15.30;6.45;;;0.50;99.90;;;;;;5092037;28;20071;-70
2021/03/18 04:04:06;;;;;;;12.07;5.90;;;0.50;99.90;;;;;;5105554;28;20075;-70
2021/03/18 04:06:39;;;;;;;15.48;6.22;;;0.50;99.90;;;;;;5105601;28;20036;-70
2021/03/18 04:09:07;;;;;;;13.55;5.43;;;0.50;99.90;;;;;;5096088;28;20044;-70
2021/03/18 04:11:38;;;;;;;9.75;5.95;;;0.50;99.90;;;;;;5102177;28;20058;-70
2021/03/18 04:14:09;;;;;;;15.02;6.80;;;0.50;99.90;;;;;;5104935;28;20062;-70
2021/03/18 04:16:41;;;;;;;14.88;6.95;;;0.50;99.90;;;;;;5105183;28;20051;-70
2021/03/18 04:19:13;;;;;;;14.43;6.88;;;0.50;99.90;;;;;;5105689;28;20127;-70
2021/03/18 04:21:41;;;;;;;11.77;6.60;;;0.60;99.90;;;;;;5105361;28;20062;-70
2021/03/18 04:24:09;;;;;;;12.95;6.57;;;0.60;99.90;;;;;;5105467;28;20048;-70
2021/03/18 04:26:37;;;;;;;12.82;6.30;;;0.60;99.90;;;;;;5104985;28;20059;-70
2021/03/18 04:29:04;;;;;;;16.67;6.47;;;0.60;99.90;;;;;;5105585;28;20047;-70
2021/03/18 04:31:33;;;;;;;14.23;7.20;;;0.70;99.90;;;;;;5105629;28;20036;-70
2021/03/18 04:34:00;;;;;;;12.32;7.07;;;0.70;99.90;;;;;;5105680;28;20044;-70
2021/03/18 04:36:28;;;;;;;10.30;6.25;;;0.70;99.90;;;;;;5105768;28;20040;-70
2021/03/18 04:38:56;;;;;;;11.15;6.80;;;0.70;99.90;;;;;;5105275;28;20043;-70
2021/03/18 04:41:23;;;;;;;17.02;7.03;;;0.80;99.90;;;;;;5105413;28;20406;-70
2021/03/18 04:43:50;;;;;;;13.90;6.72;;;0.80;99.90;;;;;;5105279;28;20090;-70
2021/03/18 04:46:16;;;;;;;15.93;6.68;;;0.70;99.90;;;;;;5105208;28;20048;-70
2021/03/18 04:48:43;;;;;;;16.35;7.00;;;0.70;99.90;;;;;;5104930;28;20611;-70
2021/03/18 04:51:10;;;;;;;11.75;6.40;;;0.70;99.90;;;;;;5105487;28;20077;-70
2021/03/18 04:53:38;;;;;;;16.50;6.78;;;0.70;99.90;;;;;;5105373;28;20055;-70
2021/03/18 04:56:07;;;;;;;13.55;6.47;;;0.80;99.90;;;;;;5087116;28;20048;-69
2021/03/18 04:58:35;;;;;;;16.55;7.55;;;0.80;99.90;;;;;;5105270;28;20055;-70
2021/03/18 05:01:02;;;;;;;13.55;7.88;;;0.80;99.90;;;;;;5105354;28;20060;-70
2021/03/18 05:03:28;;;;;;;9.77;7.07;;;0.80;99.90;;;;;;5105175;28;20048;-70
2021/03/18 05:05:57;;;;;;;15.68;6.30;;;0.80;99.90;;;;;;5105379;28;20043;-70
2021/03/18 05:08:23;;;;;;;13.20;6.45;;;0.80;99.90;;;;;;5085947;28;20044;-70
2021/03/18 05:10:50;;;;;;;14.10;6.57;;;0.80;99.90;;;;;;5084692;28;20431;-70
2021/03/18 05:13:16;;;;;;;14.27;6.45;;;0.80;99.90;;;;;;5099880;28;20131;-70
2021/03/18 05:15:44;;;;;;;13.95;6.25;;;0.70;99.90;;;;;;5105095;28;20048;-70
2021/03/18 05:18:15;;;;;;;9.73;6.45;;;0.70;99.90;;;;;;5108969;28;20048;-70
2021/03/18 05:20:42;;;;;;;14.43;6.45;;;0.60;99.90;;;;;;5090352;28;20052;-70
2021/03/18 05:23:10;;;;;;;10.70;6.32;;;0.60;99.90;;;;;;5101193;28;20048;-70
2021/03/18 05:25:37;;;;;;;16.75;6.45;;;0.70;99.90;;;;;;5109068;28;20048;-70
2021/03/18 05:28:04;;;;;;;14.20;6.60;;;0.70;99.90;;;;;;5108175;28;20040;-70
2021/03/18 05:30:33;;;;;;;13.35;7.00;;;0.70;99.90;;;;;;5108972;28;20052;-70
2021/03/18 05:33:01;;;;;;;13.98;6.60;;;0.70;99.90;;;;;;5109088;28;20059;-70
2021/03/18 05:35:28;;;;;;;12.05;6.80;;;0.70;99.90;;;;;;5103735;28;20052;-70
2021/03/18 05:37:54;;;;;;;11.07;7.05;;;0.70;99.90;;;;;;5107434;28;20048;-70
2021/03/18 05:40:21;;;;;;;19.67;7.43;;;0.70;99.90;;;;;;5107512;28;20084;-70
2021/03/18 05:42:48;;;;;;;11.90;6.85;;;0.70;99.90;;;;;;5107456;28;20047;-69
2021/03/18 05:45:16;;;;;;;14.77;7.13;;;0.70;99.90;;;;;;5079988;28;20044;-73
2021/03/18 05:47:42;;;;;;;13.57;7.28;;;0.70;99.90;;;;;;5086925;28;20041;-73
2021/03/18 05:50:13;;;;;;;16.25;7.40;;;0.70;99.90;;;;;;5079346;28;20071;-74
2021/03/18 05:52:39;;;;;;;;;;;0.80;99.90;;;;;;5075673;28;20075;-74
2021/03/18 05:55:06;;;;;;;15.45;7.25;;;0.80;99.90;;;;;;5098303;28;19963;-74
2021/03/18 05:57:36;;;;;;;19.67;8.25;;;0.90;99.90;;;;;;5105307;27;20054;-74
2021/03/18 06:00:06;;;;;;;14.77;8.60;;;0.90;99.90;;;;;;5102072;28;20040;-75
2021/03/18 06:02:33;;;;;;;14.40;7.47;;;1.00;99.90;;;;;;5102278;28;20316;-75
2021/03/18 06:05:04;;;;;;;14.82;8.45;;;1.00;99.90;;;;;;5101930;28;20040;-76
2021/03/18 06:07:33;;;;;;;13.88;8.00;;;1.00;99.90;;;;;;5104578;27;20050;-74
2021/03/18 06:10:00;;;;;;;20.58;8.70;;;1.10;99.90;;;;;;5104052;28;20040;-73
2021/03/18 06:12:26;;;;;;;18.17;8.93;;;1.10;99.90;;;;;;5069657;28;20099;-73
2021/03/18 06:14:52;;;;;;;16.40;8.57;;;1.20;99.90;;;;;;5103864;28;20040;-73
2021/03/18 06:17:18;;;;;;;14.10;7.78;;;1.20;99.90;;;;;;5099463;28;20061;-75
2021/03/18 06:19:43;;;;;;;12.05;8.18;;;1.30;99.90;;;;;;5099237;28;20066;-70
2021/03/18 06:22:09;;;;;;;15.95;8.23;;;1.30;99.90;;;;;;5097795;28;20055;-72
2021/03/18 06:24:47;;;;;;;12.90;7.80;;;1.30;99.90;;;;;;5103385;28;20048;-71
2021/03/18 06:27:22;;;;;;;15.27;8.68;;;1.40;99.90;;;;;;5096525;28;20311;-71
2021/03/18 06:29:48;;;;;;;14.07;8.23;;;1.40;99.90;;;;;;5103316;28;20111;-71
2021/03/18 06:32:14;;;;;;;14.88;8.15;;;1.40;99.90;;;;;;5097052;28;20047;-71
2021/03/18 06:34:48;;;;;;;11.98;8.25;;;1.40;99.90;;;;;;5103297;28;20204;-71
2021/03/18 06:37:33;;;;;;;16.08;9.35;;;1.50;99.90;;;;;;5105621;27;20070;-71
2021/03/18 06:40:11;;;;;;;16.80;8.93;;;1.60;99.90;;;;;;5100403;28;20131;-71
2021/03/18 06:42:38;;;;;;;18.52;8.93;;;1.60;99.90;;;;;;5105161;27;20047;-72
2021/03/18 06:45:07;;;;;;;17.33;9.45;;;1.60;99.90;;;;;;5092274;28;20039;-72
2021/03/18 06:47:53;;;;;;;14.02;8.70;;;1.70;99.90;;;;;;5099352;28;20047;-70
2021/03/18 06:50:25;;;;;;;18.45;9.35;;;1.70;99.90;;;;;;5098144;28;20095;-72
2021/03/18 06:52:51;;;;;;;18.02;8.57;;;1.80;99.90;;;;;;5103545;28;20063;-72
2021/03/18 06:55:25;;;;;;;14.13;8.25;;;1.90;99.90;;;;;;5077401;28;20776;-72
2021/03/18 06:58:12;;;;;;;15.98;7.85;;;1.90;99.90;;;;;;5080183;28;20048;-72
2021/03/18 07:00:38;;;;;;;14.77;8.15;;;1.90;99.90;;;;;;5081047;28;20128;-72
2021/03/18 07:03:06;;;;;;;15.45;7.70;;;2.00;99.90;;;;;;5099119;28;20052;-72
2021/03/18 07:05:38;;;;;;;16.38;8.20;;;2.00;99.90;;;;;;5078792;28;20047;-72
2021/03/18 07:08:04;;;;;;;14.55;9.30;;;2.10;99.90;;;;;;5083393;28;20056;-73
2021/03/18 07:10:33;;;;;;;19.75;9.60;;;2.20;99.90;;;;;;5078897;28;20055;-72
2021/03/18 07:13:34;;;;;;;20.05;10.10;;;2.20;99.90;;;;;;5089270;28;20044;-72
2021/03/18 07:16:07;;;;;;;19.60;11.80;;;2.30;99.90;;;;;;5077164;28;20095;-72
2021/03/18 07:18:33;;;;;;;16.73;10.88;;;2.50;99.90;;;;;;5092125;28;20048;-72
2021/03/18 07:21:00;;;;;;;24.08;12.20;;;2.60;99.90;;;;;;5081583;28;20121;-72
2021/03/18 07:23:44;;;;;;;24.48;11.00;;;2.60;99.90;;;;;;5083084;28;20048;-72
2021/03/18 07:26:16;;;;;;;21.23;12.13;;;2.70;99.90;;;;;;5091133;28;20165;-72
2021/03/18 07:28:55;;;;;;;17.88;11.70;;;2.70;99.90;;;;;;5080038;28;20048;-72
2021/03/18 07:31:21;;;;;;;23.40;11.45;;;2.80;99.90;;;;;;5102561;28;20032;-72
2021/03/18 07:33:50;;;;;;;17.27;10.00;;;2.90;99.90;;;;;;5051909;28;20047;-72
2021/03/18 07:36:16;;;;;;;19.15;11.77;;;2.90;99.90;;;;;;5070937;28;20490;-71
2021/03/18 07:38:43;;;;;;;17.25;10.55;;;3.00;99.90;;;;;;5062832;28;20040;-72
2021/03/18 07:41:15;;;;;;;17.63;9.77;;;3.10;99.90;;;;;;5075961;28;20044;-72
2021/03/18 07:43:46;;;;;;;29.25;14.93;;;3.10;99.90;;;;;;5064340;28;20186;-73
2021/03/18 07:46:14;;;;;;;19.08;11.63;;;3.20;99.90;;;;;;5074308;28;20048;-72
2021/03/18 07:48:43;;;;;;;19.73;11.63;;;3.30;99.90;;;;;;5088858;28;20055;-72
2021/03/18 07:51:10;;;;;;;18.60;10.70;;;3.30;99.90;;;;;;5080208;28;20036;-73
2021/03/18 07:53:36;;;;;;;22.75;11.93;;;3.30;99.90;;;;;;5066789;28;20049;-72
2021/03/18 07:56:03;;;;;;;13.43;10.23;;;3.40;99.90;;;;;;5060068;28;20045;-72
2021/03/18 07:58:43;;;;;;;17.67;10.30;;;3.40;99.90;;;;;;5065220;28;20060;-72
2021/03/18 08:01:28;;;;;;;17.95;10.60;;;3.40;99.90;;;;;;5067276;28;20440;-73
2021/03/18 08:03:54;;;;;;;21.88;11.27;;;3.50;99.90;;;;;;5053077;28;20049;-72
2021/03/18 08:06:43;;;;;;;20.77;10.77;;;3.60;99.90;;;;;;5075448;28;20052;-72
2021/03/18 08:09:10;;;;;;;15.18;8.02;;;3.70;99.90;;;;;;5020236;28;20492;-72
2021/03/18 08:11:37;;;;;;;20.35;9.52;;;3.70;99.90;;;;;;5076552;28;20120;-72
2021/03/18 08:14:07;;;;;;;19.80;10.50;;;3.70;99.90;;;;;;5050163;28;20079;-72
2021/03/18 08:16:34;;;;;;;15.10;8.82;;;3.80;99.90;;;;;;5075738;28;20055;-72
2021/03/18 08:19:01;;;;;;;17.58;9.48;;;3.90;99.90;;;;;;5061614;28;20484;-72
2021/03/18 08:21:35;;;;;;;22.52;11.63;;;4.00;99.90;;;;;;5064532;28;20046;-72
2021/03/18 08:24:02;;;;;;;18.08;8.32;;;4.10;99.90;;;;;;5065889;28;20048;-72
2021/03/18 08:26:38;;;;;;;16.92;7.97;;;4.10;99.90;;;;;;5072938;28;20106;-72
2021/03/18 08:29:08;;;;;;;16.38;7.82;;;4.10;99.90;;;;;;5083334;28;20380;-83
2021/03/18 08:31:34;;;;;;;14.27;7.80;;;4.20;99.90;;;;;;5075896;28;20040;-79
2021/03/18 08:34:01;;;;;;;11.95;7.32;;;4.20;99.90;;;;;;5080737;28;20044;-85
2021/03/18 08:36:40;;;;;;;15.55;8.18;;;4.20;99.90;;;;;;5075930;28;20052;-82
2021/03/18 08:39:12;;;;;;;16.52;9.15;;;4.30;99.90;;;;;;5050803;28;20052;-83
2021/03/18 08:41:44;;;;;;;20.45;8.90;;;4.30;99.90;;;;;;5055310;28;20059;-85
2021/03/18 08:44:16;;;;;;;14.75;7.82;;;4.30;99.90;;;;;;5061661;28;20072;-86
2021/03/18 08:46:48;;;;;;;16.20;8.52;;;4.30;99.90;;;;;;5055731;28;20045;-85
2021/03/18 08:49:24;;;;;;;11.38;6.55;;;4.40;99.90;;;;;;5081454;28;20045;-84
2021/03/18 08:51:51;;;;;;;9.73;6.45;;;4.40;99.90;;;;;;5074165;28;20051;-80
2021/03/18 08:54:36;;;;;;;10.23;6.03;;;4.50;99.90;;;;;;5088792;28;20052;-84
2021/03/18 08:57:03;;;;;;;15.18;7.43;;;4.60;99.90;;;;;;5069743;28;20475;-84
2021/03/18 08:59:30;;;;;;;16.52;7.00;;;4.60;99.90;;;;;;5094855;28;20199;-85
2021/03/18 09:02:06;;;;;;;12.48;7.05;;;4.60;99.90;;;;;;5070775;28;20350;-86
2021/03/18 09:04:40;;;;;;;13.30;7.15;;;4.70;99.90;;;;;;5093452;28;20047;-82
2021/03/18 09:07:11;;;;;;;12.50;6.50;;;4.70;99.90;;;;;;5069796;28;20048;-78
2021/03/18 09:09:38;;;;;;;10.52;6.13;;;4.80;99.90;;;;;;5073273;28;20241;-76
2021/03/18 09:12:06;;;;;;;10.43;6.82;;;4.80;99.90;;;;;;5052178;28;20037;-77
2021/03/18 09:14:32;;;;;;;13.50;6.35;;;4.90;99.90;;;;;;5060870;28;20045;-77
2021/03/18 09:17:16;;;;;;;13.93;6.55;;;5.00;99.90;;;;;;5036706;28;20148;-76
2021/03/18 09:19:46;;;;;;;12.07;6.60;;;5.00;99.90;;;;;;5093363;28;20170;-75
2021/03/18 09:22:23;;;;;;;11.07;6.13;;;5.00;99.90;;;;;;5064274;28;20095;-76
2021/03/18 09:24:49;;;;;;;11.75;6.25;;;5.00;99.90;;;;;;5050252;28;20133;-76
2021/03/18 09:27:15;;;;;;;15.80;6.38;;;5.10;99.90;;;;;;5065672;28;20056;-77
2021/03/18 09:29:43;;;;;;;16.27;6.63;;;5.00;99.90;;;;;;5100072;28;20044;-75
2021/03/18 09:32:11;;;;;;;12.57;6.43;;;5.10;99.90;;;;;;5089925;28;20069;-76
2021/03/18 09:34:39;;;;;;;8.57;5.50;;;5.10;99.90;;;;;;5099608;28;20055;-76
2021/03/18 09:37:05;;;;;;;17.38;7.78;;;5.10;99.90;;;;;;5071183;28;20040;-75
2021/03/18 09:39:31;;;;;;;13.02;5.15;;;5.20;99.90;;;;;;5085357;28;20059;-76
2021/03/18 09:42:01;;;;;;;14.60;6.65;;;5.30;99.90;;;;;;5100259;28;20040;-75
2021/03/18 09:44:29;;;;;;;13.77;5.43;;;5.30;99.90;;;;;;5073267;28;20071;-75
2021/03/18 09:46:56;;;;;;;12.20;4.30;;;5.50;99.90;;;;;;5090574;28;20031;-76
2021/03/18 09:49:42;;;;;;;8.50;4.47;;;5.60;99.90;;;;;;5083579;28;20048;-75
2021/03/18 09:52:12;;;;;;;13.90;5.70;;;5.60;99.90;;;;;;5081301;28;20101;-74
2021/03/18 09:54:39;;;;;;;11.82;5.40;;;5.70;99.90;;;;;;5092600;28;20044;-76
2021/03/18 09:57:07;;;;;;;14.43;4.57;;;5.70;99.90;;;;;;5094282;28;20079;-75
2021/03/18 09:59:33;;;;;;;13.90;5.05;;;5.80;99.90;;;;;;5090225;28;20060;-76
2021/03/18 10:02:00;;;;;;;14.70;5.63;;;5.80;99.90;;;;;;5091123;28;20048;-76
2021/03/18 10:04:26;;;;;;;12.82;5.65;;;5.80;99.90;;;;;;5079433;28;20049;-75
2021/03/18 10:06:58;;;;;;;19.05;6.57;;;5.70;99.90;;;;;;5093569;28;20052;-76
2021/03/18 10:09:26;;;;;;;14.93;5.63;;;5.80;99.90;;;;;;5067194;28;20044;-76
2021/03/18 10:11:54;;;;;;;13.15;5.00;;;5.80;99.90;;;;;;5094056;28;20043;-75
2021/03/18 10:14:40;;;;;;;15.77;4.95;;;5.90;99.90;;;;;;5092965;28;20059;-78
2021/03/18 10:17:14;;;;;;;17.38;6.25;;;5.80;99.90;;;;;;5095761;28;20119;-77
2021/03/18 10:19:54;;;;;;;20.83;7.05;;;5.90;99.90;;;;;;5066601;28;20051;-76
2021/03/18 10:22:24;;;;;;;11.55;5.65;;;6.00;99.90;;;;;;5058652;28;20048;-76
2021/03/18 10:25:04;;;;;;;15.55;5.72;;;6.00;99.90;;;;;;5076951;28;20048;-76
2021/03/18 10:27:32;;;;;;;14.63;5.25;;;6.10;99.90;;;;;;5067639;28;20049;-76
2021/03/18 10:30:08;;;;;;;12.63;5.47;;;6.10;99.90;;;;;;5076903;28;20072;-76
2021/03/18 10:32:36;;;;;;;17.95;5.60;;;6.10;99.90;;;;;;5070528;28;20055;-76
2021/03/18 10:35:03;;;;;;;11.32;5.82;;;6.20;99.90;;;;;;5091405;28;20068;-76
2021/03/18 10:37:38;;;;;;;14.45;5.13;;;6.20;99.90;;;;;;5061072;28;20064;-75
2021/03/18 10:40:15;;;;;;;15.88;5.57;;;6.20;99.90;;;;;;5052529;28;20048;-75
2021/03/18 10:42:42;;;;;;;9.73;5.15;;;6.20;99.90;;;;;;5059963;28;20040;-74
2021/03/18 10:45:19;;;;;;;12.38;5.00;;;6.20;99.90;;;;;;5089554;28;20083;-75
2021/03/18 10:47:46;;;;;;;17.80;4.38;;;6.20;99.90;;;;;;5078244;28;20051;-74
2021/03/18 10:50:15;;;;;;;16.92;4.68;;;6.30;99.90;;;;;;5093388;28;20050;-76
2021/03/18 10:52:51;;;;;;;18.48;4.95;;;6.30;99.90;;;;;;5070764;28;20070;-76
2021/03/18 10:55:22;;;;;;;19.60;4.35;;;6.40;99.90;;;;;;5076866;28;20078;-76
2021/03/18 10:57:59;;;;;;;13.10;4.93;;;6.30;99.70;;;;;;5088797;28;20186;-76
2021/03/18 11:00:27;;;;;;;13.70;4.18;;;6.30;99.80;;;;;;5096864;28;20132;-76
2021/03/18 11:03:17;;;;;;;16.13;4.75;;;6.40;99.90;;;;;;5091207;28;20119;-76
2021/03/18 11:05:46;;;;;;;13.03;4.30;;;6.50;99.90;;;;;;5078743;28;20123;-75
2021/03/18 11:08:13;;;;;;;16.65;4.63;;;6.60;99.80;;;;;;5086851;28;20355;-76
2021/03/18 11:10:42;;;;;;;15.52;4.45;;;6.70;99.60;;;;;;5097769;28;20062;-77
2021/03/18 11:13:13;;;;;;;14.97;4.00;;;6.90;99.20;;;;;;5086516;28;20123;-77
2021/03/18 11:15:50;;;;;;;18.80;4.22;;;6.90;98.70;;;;;;5078090;28;20600;-79
2021/03/18 11:18:16;;;;;;;14.02;4.03;;;6.80;98.30;;;;;;5087669;28;20048;-79
2021/03/18 11:20:45;;;;;;;13.60;3.90;;;6.80;98.60;;;;;;5095799;28;20040;-77
2021/03/18 11:23:12;;;;;;;13.05;4.05;;;6.80;98.20;;;;;;5086311;28;20052;-75
2021/03/18 11:25:39;;;;;;;9.75;3.30;;;6.80;98.40;;;;;;5097315;28;20046;-78
2021/03/18 11:28:05;;;;;;;11.63;3.67;;;6.70;98.30;;;;;;5092047;28;20074;-76
2021/03/18 11:30:37;;;;;;;10.43;4.18;;;6.80;97.50;;;;;;5083437;28;20051;-77
2021/03/18 11:33:23;;;;;;;9.52;3.45;;;6.80;96.70;;;;;;5088889;28;20071;-77
2021/03/18 11:35:51;;;;;;;13.73;4.25;;;6.90;96.40;;;;;;5096868;28;20209;-77
2021/03/18 11:38:19;;;;;;;9.82;2.95;;;6.90;96.00;;;;;;5089053;28;20477;-76
2021/03/18 11:40:46;;;;;;;10.32;3.88;;;7.00;96.00;;;;;;5100922;28;20498;-76
2021/03/18 11:43:13;;;;;;;13.55;3.65;;;7.10;96.10;;;;;;5081573;28;20077;-77
2021/03/18 11:45:40;;;;;;;13.63;3.42;;;7.20;96.00;;;;;;5096807;28;20358;-77
2021/03/18 11:48:07;;;;;;;8.95;2.20;;;7.40;95.80;;;;;;5086297;28;20051;-76
2021/03/18 11:50:33;;;;;;;6.82;2.25;;;7.40;95.00;;;;;;5095330;28;20040;-77
2021/03/18 11:52:59;;;;;;;10.88;2.22;;;7.40;95.10;;;;;;5066623;28;20040;-76
2021/03/18 11:55:26;;;;;;;8.85;2.47;;;7.60;93.90;;;;;;5096145;28;20062;-77
2021/03/18 11:57:58;;;;;;;10.02;2.83;;;7.60;93.60;;;;;;5085269;28;20402;-78
2021/03/18 12:00:27;;;;;;;12.93;3.00;;;7.60;93.80;;;;;;5095370;28;20055;-77
2021/03/18 12:02:55;;;;;;;7.90;2.50;;;7.60;94.40;;;;;;5089219;28;20088;-77
2021/03/18 12:05:21;;;;;;;8.98;2.90;;;7.60;94.90;;;;;;5084196;28;20464;-77
2021/03/18 12:07:47;;;;;;;8.82;2.55;;;7.60;95.10;;;;;;5086160;28;20058;-77
2021/03/18 12:10:14;;;;;;;6.28;2.15;;;7.70;94.60;;;;;;5095062;28;20040;-77
2021/03/18 12:12:40;;;;;;;8.10;2.63;;;7.70;94.60;;;;;;5086111;28;20054;-76
2021/03/18 12:15:08;;;;;;;6.65;2.53;;;7.60;94.70;;;;;;5094797;28;20063;-77
2021/03/18 12:17:35;;;;;;;6.38;2.63;;;7.60;94.80;;;;;;5096591;28;20060;-78
2021/03/18 12:20:03;;;;;;;8.38;3.13;;;7.60;94.90;;;;;;5067370;28;20036;-77
2021/03/18 12:22:29;;;;;;;7.53;2.47;;;7.60;95.80;;;;;;5096319;28;20043;-77
2021/03/18 12:24:55;;;;;;;12.50;2.72;;;7.70;96.30;;;;;;5084213;28;20055;-77
2021/03/18 12:27:21;;;;;;;13.75;3.55;;;7.80;96.30;;;;;;5097547;28;20082;-78
2021/03/18 12:29:47;;;;;;;6.85;2.13;;;7.90;95.80;;;;;;5086878;28;20055;-76
2021/03/18 12:32:13;;;;;;;5.65;2.10;;;7.90;95.70;;;;;;5096286;28;20067;-76
2021/03/18 12:34:38;;;;;;;7.20;2.20;;;8.10;95.00;;;;;;5077376;28;20603;-76
2021/03/18 12:37:05;;;;;;;8.02;2.08;;;8.20;94.30;;;;;;5085907;28;20048;-78
2021/03/18 12:39:31;;;;;;;11.57;2.50;;;8.20;94.10;;;;;;5084778;28;20048;-77
2021/03/18 12:41:57;;;;;;;8.60;2.08;;;8.30;94.00;;;;;;5097171;28;20356;-78
2021/03/18 12:44:23;;;;;;;6.97;2.08;;;8.40;93.70;;;;;;5072446;28;20464;-77
2021/03/18 12:46:49;;;;;;;5.72;2.00;;;8.40;93.40;;;;;;5081475;28;20050;-78
2021/03/18 12:49:15;;;;;;;5.80;1.98;;;8.50;93.40;;;;;;5084871;28;20525;-78
2021/03/18 12:51:40;;;;;;;10.48;3.03;;;8.60;93.60;;;;;;5075252;28;20048;-77
2021/03/18 12:54:06;;;;;;;5.82;1.77;;;8.90;93.30;;;;;;5076876;28;20046;-77
2021/03/18 12:56:33;;;;;;;7.88;2.13;;;9.10;92.60;;;;;;5089446;28;20457;-77
2021/03/18 12:59:00;;;;;;;6.45;1.75;;;9.30;91.50;;;;;;5086798;28;20054;-77
2021/03/18 13:01:26;;;;;;;8.75;2.15;;;9.40;91.30;;;;;;5097274;28;20100;-77